sensor_id;sensor_type;location;lat;lon;timestamp;temperature;humidity
13336;DHT22;6737;51.480;11.962;2022-10-19T00:01:22;10.70;99.90
13336;DHT22;6737;51.480;11.962;2022-10-19T00:03:53;10.60;99.90
13336;DHT22;6737;51.480;11.962;2022-10-19T00:06:22;10.60;99.90
13336;DHT22;6737;51.480;11.962;2022-10-19T00:08:57;10.60;99.90
13336;DHT22;6737;51.480;11.962;2022-10-19T00:11:23;10.60;99.90
13336;DHT22;6737;51.480;11.962;2022-10-19T00:13:50;10.50;99.90
13336;DHT22;6737;51.480;11.962;2022-10-19T00:16:17;10.50;99.90
13336;DHT22;6737;51.480;11.962;2022-10-19T00:18:44;10.50;99.90
13336;DHT22;6737;51.480;11.962;2022-10-19T00:21:14;10.50;99.90
13336;DHT22;6737;51.480;11.962;2022-10-19T00:23:40;10.50;99.90
13336;DHT22;6737;51.480;11.962;2022-10-19T00:26:07;10.40;99.90
13336;DHT22;6737;51.480;11.962;2022-10-19T00:28:33;10.30;99.90
13336;DHT22;6737;51.480;11.962;2022-10-19T00:31:10;10.30;99.90
13336;DHT22;6737;51.480;11.962;2022-10-19T00:33:37;10.20;99.90
13336;DHT22;6737;51.480;11.962;2022-10-19T00:36:04;10.20;99.90
13336;DHT22;6737;51.480;11.962;2022-10-19T00:38:30;10.10;99.90
13336;DHT22;6737;51.480;11.962;2022-10-19T00:40:56;10.10;99.90
13336;DHT22;6737;51.480;11.962;2022-10-19T00:43:27;10.10;99.90
13336;DHT22;6737;51.480;11.962;2022-10-19T00:45:54;10.10;99.90
13336;DHT22;6737;51.480;11.962;2022-10-19T00:48:29;10.10;99.90
13336;DHT22;6737;51.480;11.962;2022-10-19T00:50:57;10.10;99.90
13336;DHT22;6737;51.480;11.962;2022-10-19T00:53:27;10.10;99.90
13336;DHT22;6737;51.480;11.962;2022-10-19T00:55:55;10.20;99.90
13336;DHT22;6737;51.480;11.962;2022-10-19T00:58:21;10.10;99.90
13336;DHT22;6737;51.480;11.962;2022-10-19T01:00:47;10.00;99.90
13336;DHT22;6737;51.480;11.962;2022-10-19T01:03:13;10.00;99.90
13336;DHT22;6737;51.480;11.962;2022-10-19T01:05:40;10.10;99.90
13336;DHT22;6737;51.480;11.962;2022-10-19T01:08:06;10.10;99.90
13336;DHT22;6737;51.480;11.962;2022-10-19T01:31:07;10.30;99.90
13336;DHT22;6737;51.480;11.962;2022-10-19T01:33:54;10.30;99.90
13336;DHT22;6737;51.480;11.962;2022-10-19T01:36:42;10.30;99.90
13336;DHT22;6737;51.480;11.962;2022-10-19T01:39:22;10.40;99.90
13336;DHT22;6737;51.480;11.962;2022-10-19T01:44:28;10.40;99.90
13336;DHT22;6737;51.480;11.962;2022-10-19T01:47:03;10.30;99.90
13336;DHT22;6737;51.480;11.962;2022-10-19T01:52:23;10.30;99.90
13336;DHT22;6737;51.480;11.962;2022-10-19T01:54:55;10.30;99.90
13336;DHT22;6737;51.480;11.962;2022-10-19T01:57:27;10.40;99.90
13336;DHT22;6737;51.480;11.962;2022-10-19T01:59:56;10.40;99.90
13336;DHT22;6737;51.480;11.962;2022-10-19T02:02:24;10.40;99.90
13336;DHT22;6737;51.480;11.962;2022-10-19T02:04:53;10.40;99.90
13336;DHT22;6737;51.480;11.962;2022-10-19T02:07:22;10.40;99.90
13336;DHT22;6737;51.480;11.962;2022-10-19T02:09:49;10.40;99.90
13336;DHT22;6737;51.480;11.962;2022-10-19T02:12:15;10.50;99.90
13336;DHT22;6737;51.480;11.962;2022-10-19T02:14:47;10.50;99.90
13336;DHT22;6737;51.480;11.962;2022-10-19T02:17:21;10.50;99.90
13336;DHT22;6737;51.480;11.962;2022-10-19T02:19:48;10.40;99.90
13336;DHT22;6737;51.480;11.962;2022-10-19T02:22:14;10.40;99.90
13336;DHT22;6737;51.480;11.962;2022-10-19T02:24:39;10.40;99.90
13336;DHT22;6737;51.480;11.962;2022-10-19T02:27:07;10.30;99.90
13336;DHT22;6737;51.480;11.962;2022-10-19T02:29:33;10.30;99.90
13336;DHT22;6737;51.480;11.962;2022-10-19T02:32:01;10.30;99.90
13336;DHT22;6737;51.480;11.962;2022-10-19T02:34:28;10.20;99.90
13336;DHT22;6737;51.480;11.962;2022-10-19T02:36:54;10.20;99.90
13336;DHT22;6737;51.480;11.962;2022-10-19T02:39:21;10.10;99.90
13336;DHT22;6737;51.480;11.962;2022-10-19T02:41:52;10.00;99.90
13336;DHT22;6737;51.480;11.962;2022-10-19T02:44:55;10.00;99.90
13336;DHT22;6737;51.480;11.962;2022-10-19T02:47:27;10.10;99.90
13336;DHT22;6737;51.480;11.962;2022-10-19T02:49:54;10.10;99.90
13336;DHT22;6737;51.480;11.962;2022-10-19T02:52:20;10.00;99.90
13336;DHT22;6737;51.480;11.962;2022-10-19T02:54:46;10.00;99.90
13336;DHT22;6737;51.480;11.962;2022-10-19T02:57:23;10.10;99.90
13336;DHT22;6737;51.480;11.962;2022-10-19T02:59:51;10.10;99.90
13336;DHT22;6737;51.480;11.962;2022-10-19T03:02:18;10.00;99.90
13336;DHT22;6737;51.480;11.962;2022-10-19T03:04:44;10.00;99.90
13336;DHT22;6737;51.480;11.962;2022-10-19T03:07:15;10.00;99.90
13336;DHT22;6737;51.480;11.962;2022-10-19T03:09:42;10.00;99.90
13336;DHT22;6737;51.480;11.962;2022-10-19T03:12:08;10.00;99.90
13336;DHT22;6737;51.480;11.962;2022-10-19T03:14:34;10.00;99.90
13336;DHT22;6737;51.480;11.962;2022-10-19T03:17:01;10.00;99.90
13336;DHT22;6737;51.480;11.962;2022-10-19T03:19:27;9.90;99.90
13336;DHT22;6737;51.480;11.962;2022-10-19T03:21:53;9.90;99.90
13336;DHT22;6737;51.480;11.962;2022-10-19T03:24:19;9.90;99.90
13336;DHT22;6737;51.480;11.962;2022-10-19T03:26:45;10.00;99.90
13336;DHT22;6737;51.480;11.962;2022-10-19T03:29:11;9.90;99.90
13336;DHT22;6737;51.480;11.962;2022-10-19T03:31:36;9.90;99.90
13336;DHT22;6737;51.480;11.962;2022-10-19T03:34:02;9.90;99.90
13336;DHT22;6737;51.480;11.962;2022-10-19T03:36:31;9.80;99.90
13336;DHT22;6737;51.480;11.962;2022-10-19T03:38:59;9.80;99.90
13336;DHT22;6737;51.480;11.962;2022-10-19T03:41:27;9.80;99.90
13336;DHT22;6737;51.480;11.962;2022-10-19T03:43:53;9.70;99.90
13336;DHT22;6737;51.480;11.962;2022-10-19T03:46:20;9.60;99.90
13336;DHT22;6737;51.480;11.962;2022-10-19T03:48:46;9.70;99.90
13336;DHT22;6737;51.480;11.962;2022-10-19T03:51:16;9.70;99.90
13336;DHT22;6737;51.480;11.962;2022-10-19T03:53:43;9.60;99.90
13336;DHT22;6737;51.480;11.962;2022-10-19T03:56:14;9.60;99.90
13336;DHT22;6737;51.480;11.962;2022-10-19T03:58:41;9.60;99.90
13336;DHT22;6737;51.480;11.962;2022-10-19T04:01:16;9.60;99.90
13336;DHT22;6737;51.480;11.962;2022-10-19T04:03:42;9.60;99.90
13336;DHT22;6737;51.480;11.962;2022-10-19T04:06:14;9.60;99.90
13336;DHT22;6737;51.480;11.962;2022-10-19T04:08:40;9.60;99.90
13336;DHT22;6737;51.480;11.962;2022-10-19T04:11:13;9.50;99.90
13336;DHT22;6737;51.480;11.962;2022-10-19T04:13:39;9.50;99.90
13336;DHT22;6737;51.480;11.962;2022-10-19T04:16:05;9.50;99.90
13336;DHT22;6737;51.480;11.962;2022-10-19T04:18:31;9.50;99.90
13336;DHT22;6737;51.480;11.962;2022-10-19T04:20:59;9.40;99.90
13336;DHT22;6737;51.480;11.962;2022-10-19T04:23:27;9.40;99.90
13336;DHT22;6737;51.480;11.962;2022-10-19T04:26:02;9.40;99.90
13336;DHT22;6737;51.480;11.962;2022-10-19T04:28:28;9.40;99.90
13336;DHT22;6737;51.480;11.962;2022-10-19T04:30:54;9.30;99.90
13336;DHT22;6737;51.480;11.962;2022-10-19T04:33:20;9.30;99.90
13336;DHT22;6737;51.480;11.962;2022-10-19T04:35:45;9.30;99.90
13336;DHT22;6737;51.480;11.962;2022-10-19T04:38:11;9.20;99.90
13336;DHT22;6737;51.480;11.962;2022-10-19T04:40:37;9.30;99.90
13336;DHT22;6737;51.480;11.962;2022-10-19T04:43:04;9.20;99.90
13336;DHT22;6737;51.480;11.962;2022-10-19T04:45:31;9.30;99.90
13336;DHT22;6737;51.480;11.962;2022-10-19T04:47:57;9.30;99.90
13336;DHT22;6737;51.480;11.962;2022-10-19T04:50:24;9.30;99.90
13336;DHT22;6737;51.480;11.962;2022-10-19T04:52:50;9.30;99.90
13336;DHT22;6737;51.480;11.962;2022-10-19T04:55:16;9.30;99.90
13336;DHT22;6737;51.480;11.962;2022-10-19T04:57:42;9.10;99.90
13336;DHT22;6737;51.480;11.962;2022-10-19T05:00:08;9.10;99.90
13336;DHT22;6737;51.480;11.962;2022-10-19T05:02:34;9.20;99.90
13336;DHT22;6737;51.480;11.962;2022-10-19T05:05:00;9.10;99.90
13336;DHT22;6737;51.480;11.962;2022-10-19T05:07:25;9.10;99.90
13336;DHT22;6737;51.480;11.962;2022-10-19T05:09:51;9.10;99.90
13336;DHT22;6737;51.480;11.962;2022-10-19T05:12:17;9.10;99.90
13336;DHT22;6737;51.480;11.962;2022-10-19T05:14:43;9.10;99.90
13336;DHT22;6737;51.480;11.962;2022-10-19T05:17:09;9.10;99.90
13336;DHT22;6737;51.480;11.962;2022-10-19T05:19:34;9.10;99.90
13336;DHT22;6737;51.480;11.962;2022-10-19T05:22:00;9.10;99.90
13336;DHT22;6737;51.480;11.962;2022-10-19T05:24:26;9.10;99.90
13336;DHT22;6737;51.480;11.962;2022-10-19T05:26:51;9.10;99.90
13336;DHT22;6737;51.480;11.962;2022-10-19T05:29:17;9.10;99.90
13336;DHT22;6737;51.480;11.962;2022-10-19T05:31:43;9.10;99.90
13336;DHT22;6737;51.480;11.962;2022-10-19T05:34:09;9.10;99.90
13336;DHT22;6737;51.480;11.962;2022-10-19T05:36:37;9.10;99.90
13336;DHT22;6737;51.480;11.962;2022-10-19T05:39:06;9.00;99.90
13336;DHT22;6737;51.480;11.962;2022-10-19T05:41:32;9.10;99.90
13336;DHT22;6737;51.480;11.962;2022-10-19T05:44:00;9.10;99.90
13336;DHT22;6737;51.480;11.962;2022-10-19T05:46:28;9.20;99.90
13336;DHT22;6737;51.480;11.962;2022-10-19T05:48:55;9.20;99.90
13336;DHT22;6737;51.480;11.962;2022-10-19T05:51:22;9.10;99.90
13336;DHT22;6737;51.480;11.962;2022-10-19T05:53:48;9.20;99.90
13336;DHT22;6737;51.480;11.962;2022-10-19T05:56:16;9.30;99.90
13336;DHT22;6737;51.480;11.962;2022-10-19T05:58:43;9.30;99.90
13336;DHT22;6737;51.480;11.962;2022-10-19T06:01:09;9.30;99.90
13336;DHT22;6737;51.480;11.962;2022-10-19T06:03:36;9.30;99.90
13336;DHT22;6737;51.480;11.962;2022-10-19T06:06:06;9.30;99.90
13336;DHT22;6737;51.480;11.962;2022-10-19T06:08:33;9.30;99.90
13336;DHT22;6737;51.480;11.962;2022-10-19T06:11:16;9.30;99.90
13336;DHT22;6737;51.480;11.962;2022-10-19T06:13:44;9.30;99.90
13336;DHT22;6737;51.480;11.962;2022-10-19T06:16:11;9.30;99.90
13336;DHT22;6737;51.480;11.962;2022-10-19T06:18:38;9.30;99.90
13336;DHT22;6737;51.480;11.962;2022-10-19T06:21:11;9.40;99.90
13336;DHT22;6737;51.480;11.962;2022-10-19T06:23:37;9.50;99.90
13336;DHT22;6737;51.480;11.962;2022-10-19T06:26:14;9.50;99.90
13336;DHT22;6737;51.480;11.962;2022-10-19T06:28:41;9.50;99.90
13336;DHT22;6737;51.480;11.962;2022-10-19T06:31:07;9.50;99.90
13336;DHT22;6737;51.480;11.962;2022-10-19T06:33:33;9.60;99.90
13336;DHT22;6737;51.480;11.962;2022-10-19T06:36:11;9.60;99.90
13336;DHT22;6737;51.480;11.962;2022-10-19T06:38:37;9.60;99.90
13336;DHT22;6737;51.480;11.962;2022-10-19T06:41:03;9.60;99.90
13336;DHT22;6737;51.480;11.962;2022-10-19T06:43:29;9.60;99.90
13336;DHT22;6737;51.480;11.962;2022-10-19T06:45:55;9.60;99.90
13336;DHT22;6737;51.480;11.962;2022-10-19T06:48:21;9.60;99.90
13336;DHT22;6737;51.480;11.962;2022-10-19T06:50:58;9.70;99.90
13336;DHT22;6737;51.480;11.962;2022-10-19T06:53:25;9.80;99.90
13336;DHT22;6737;51.480;11.962;2022-10-19T06:55:51;9.70;99.90
13336;DHT22;6737;51.480;11.962;2022-10-19T06:58:17;9.70;99.90
13336;DHT22;6737;51.480;11.962;2022-10-19T07:00:43;9.70;99.90
13336;DHT22;6737;51.480;11.962;2022-10-19T07:03:09;9.80;99.90
13336;DHT22;6737;51.480;11.962;2022-10-19T07:05:35;9.70;99.90
13336;DHT22;6737;51.480;11.962;2022-10-19T07:08:00;9.70;99.90
13336;DHT22;6737;51.480;11.962;2022-10-19T07:10:26;9.80;99.90
13336;DHT22;6737;51.480;11.962;2022-10-19T07:12:52;9.90;99.90
13336;DHT22;6737;51.480;11.962;2022-10-19T07:15:20;9.90;99.90
13336;DHT22;6737;51.480;11.962;2022-10-19T07:17:46;9.90;99.90
13336;DHT22;6737;51.480;11.962;2022-10-19T07:20:12;9.90;99.90
13336;DHT22;6737;51.480;11.962;2022-10-19T07:22:37;10.00;99.90
13336;DHT22;6737;51.480;11.962;2022-10-19T07:25:03;10.00;99.90
13336;DHT22;6737;51.480;11.962;2022-10-19T07:27:29;10.10;99.90
13336;DHT22;6737;51.480;11.962;2022-10-19T07:29:56;10.10;99.90
13336;DHT22;6737;51.480;11.962;2022-10-19T07:32:21;10.10;99.90
13336;DHT22;6737;51.480;11.962;2022-10-19T07:34:47;10.20;99.90
13336;DHT22;6737;51.480;11.962;2022-10-19T07:37:13;10.20;99.90
13336;DHT22;6737;51.480;11.962;2022-10-19T07:39:39;10.20;99.90
13336;DHT22;6737;51.480;11.962;2022-10-19T07:42:04;10.30;99.90
13336;DHT22;6737;51.480;11.962;2022-10-19T07:44:30;10.30;99.90
13336;DHT22;6737;51.480;11.962;2022-10-19T07:46:56;10.30;99.90
13336;DHT22;6737;51.480;11.962;2022-10-19T07:49:22;10.30;99.90
13336;DHT22;6737;51.480;11.962;2022-10-19T07:51:48;10.30;99.90
13336;DHT22;6737;51.480;11.962;2022-10-19T07:54:18;10.30;99.90
13336;DHT22;6737;51.480;11.962;2022-10-19T07:56:45;10.30;99.90
13336;DHT22;6737;51.480;11.962;2022-10-19T07:59:10;10.40;99.90
13336;DHT22;6737;51.480;11.962;2022-10-19T08:01:39;10.40;99.90
13336;DHT22;6737;51.480;11.962;2022-10-19T08:04:06;10.40;99.90
13336;DHT22;6737;51.480;11.962;2022-10-19T08:06:32;10.40;99.90
13336;DHT22;6737;51.480;11.962;2022-10-19T08:08:58;10.50;99.90
13336;DHT22;6737;51.480;11.962;2022-10-19T08:11:32;10.50;99.90
13336;DHT22;6737;51.480;11.962;2022-10-19T08:13:59;10.50;99.90
13336;DHT22;6737;51.480;11.962;2022-10-19T08:16:30;10.60;99.90
13336;DHT22;6737;51.480;11.962;2022-10-19T08:19:04;10.70;99.90
13336;DHT22;6737;51.480;11.962;2022-10-19T08:21:31;10.70;99.90
13336;DHT22;6737;51.480;11.962;2022-10-19T08:23:57;10.80;99.90
13336;DHT22;6737;51.480;11.962;2022-10-19T08:26:26;10.80;99.90
13336;DHT22;6737;51.480;11.962;2022-10-19T08:28:52;10.80;99.90
13336;DHT22;6737;51.480;11.962;2022-10-19T08:31:21;10.80;99.90
13336;DHT22;6737;51.480;11.962;2022-10-19T08:33:49;10.80;99.90
13336;DHT22;6737;51.480;11.962;2022-10-19T08:36:15;10.80;99.90
13336;DHT22;6737;51.480;11.962;2022-10-19T08:38:41;10.90;99.90
13336;DHT22;6737;51.480;11.962;2022-10-19T08:47:17;10.90;99.90
13336;DHT22;6737;51.480;11.962;2022-10-19T08:49:48;10.90;99.90
13336;DHT22;6737;51.480;11.962;2022-10-19T08:52:19;10.90;99.90
13336;DHT22;6737;51.480;11.962;2022-10-19T09:03:04;11.10;99.90
13336;DHT22;6737;51.480;11.962;2022-10-19T09:08:09;11.30;99.90
13336;DHT22;6737;51.480;11.962;2022-10-19T09:10:39;11.40;99.90
13336;DHT22;6737;51.480;11.962;2022-10-19T09:15:45;11.40;99.90
13336;DHT22;6737;51.480;11.962;2022-10-19T09:18:32;11.50;99.90
13336;DHT22;6737;51.480;11.962;2022-10-19T09:21:25;11.50;99.90
13336;DHT22;6737;51.480;11.962;2022-10-19T09:24:13;11.50;99.90
13336;DHT22;6737;51.480;11.962;2022-10-19T09:26:51;11.50;99.90
13336;DHT22;6737;51.480;11.962;2022-10-19T09:29:44;11.50;99.90
13336;DHT22;6737;51.480;11.962;2022-10-19T09:32:20;11.50;99.90
13336;DHT22;6737;51.480;11.962;2022-10-19T09:34:52;11.50;99.90
13336;DHT22;6737;51.480;11.962;2022-10-19T09:37:20;11.60;99.90
13336;DHT22;6737;51.480;11.962;2022-10-19T09:39:46;11.60;99.90
13336;DHT22;6737;51.480;11.962;2022-10-19T09:42:29;11.60;99.90
13336;DHT22;6737;51.480;11.962;2022-10-19T09:44:59;11.60;99.90
13336;DHT22;6737;51.480;11.962;2022-10-19T09:47:33;11.60;99.90
13336;DHT22;6737;51.480;11.962;2022-10-19T09:50:20;11.60;99.90
13336;DHT22;6737;51.480;11.962;2022-10-19T09:52:48;11.60;99.90
13336;DHT22;6737;51.480;11.962;2022-10-19T09:57:49;11.50;99.90
13336;DHT22;6737;51.480;11.962;2022-10-19T10:00:24;11.50;99.90
13336;DHT22;6737;51.480;11.962;2022-10-19T10:02:52;11.50;99.90
13336;DHT22;6737;51.480;11.962;2022-10-19T10:05:20;11.50;99.90
13336;DHT22;6737;51.480;11.962;2022-10-19T10:07:54;11.50;99.90
13336;DHT22;6737;51.480;11.962;2022-10-19T10:10:26;11.40;99.90
13336;DHT22;6737;51.480;11.962;2022-10-19T10:12:53;11.50;99.90
13336;DHT22;6737;51.480;11.962;2022-10-19T10:15:25;11.40;99.90
13336;DHT22;6737;51.480;11.962;2022-10-19T10:17:51;11.40;99.90
13336;DHT22;6737;51.480;11.962;2022-10-19T10:20:37;11.40;99.90
13336;DHT22;6737;51.480;11.962;2022-10-19T10:23:05;11.40;99.90
13336;DHT22;6737;51.480;11.962;2022-10-19T10:25:35;11.50;99.90
13336;DHT22;6737;51.480;11.962;2022-10-19T10:28:18;11.60;99.90
13336;DHT22;6737;51.480;11.962;2022-10-19T10:30:46;11.60;99.90
13336;DHT22;6737;51.480;11.962;2022-10-19T10:33:17;11.60;99.90
13336;DHT22;6737;51.480;11.962;2022-10-19T10:35:51;11.70;99.90
13336;DHT22;6737;51.480;11.962;2022-10-19T10:39:02;11.70;99.90
13336;DHT22;6737;51.480;11.962;2022-10-19T10:41:23;11.70;99.90
13336;DHT22;6737;51.480;11.962;2022-10-19T10:44:00;11.60;99.90
13336;DHT22;6737;51.480;11.962;2022-10-19T10:49:36;11.60;99.90
13336;DHT22;6737;51.480;11.962;2022-10-19T10:52:11;11.60;99.90
13336;DHT22;6737;51.480;11.962;2022-10-19T10:54:37;11.60;99.90
13336;DHT22;6737;51.480;11.962;2022-10-19T10:57:11;11.60;99.90
13336;DHT22;6737;51.480;11.962;2022-10-19T10:59:49;11.60;99.90
13336;DHT22;6737;51.480;11.962;2022-10-19T11:05:40;11.60;99.90
13336;DHT22;6737;51.480;11.962;2022-10-19T11:08:23;11.70;99.90
13336;DHT22;6737;51.480;11.962;2022-10-19T11:11:17;11.70;99.90
13336;DHT22;6737;51.480;11.962;2022-10-19T11:14:00;11.70;99.90
13336;DHT22;6737;51.480;11.962;2022-10-19T11:16:37;11.80;99.90
13336;DHT22;6737;51.480;11.962;2022-10-19T11:19:21;11.80;99.90
13336;DHT22;6737;51.480;11.962;2022-10-19T11:30:18;11.80;99.90
13336;DHT22;6737;51.480;11.962;2022-10-19T11:36:01;11.70;99.90
13336;DHT22;6737;51.480;11.962;2022-10-19T11:41:38;11.70;99.90
13336;DHT22;6737;51.480;11.962;2022-10-19T11:44:26;11.80;99.90
13336;DHT22;6737;51.480;11.962;2022-10-19T11:52:49;11.80;99.90
13336;DHT22;6737;51.480;11.962;2022-10-19T12:06:20;11.50;99.90
13336;DHT22;6737;51.480;11.962;2022-10-19T12:15:02;11.40;99.90
13336;DHT22;6737;51.480;11.962;2022-10-19T12:17:32;11.50;99.90
13336;DHT22;6737;51.480;11.962;2022-10-19T12:20:40;11.60;99.90
13336;DHT22;6737;51.480;11.962;2022-10-19T12:23:37;11.60;99.90
13336;DHT22;6737;51.480;11.962;2022-10-19T12:26:08;11.60;99.90
13336;DHT22;6737;51.480;11.962;2022-10-19T12:28:39;11.70;99.90
13336;DHT22;6737;51.480;11.962;2022-10-19T12:31:07;11.70;99.90
13336;DHT22;6737;51.480;11.962;2022-10-19T12:34:04;11.70;99.90
13336;DHT22;6737;51.480;11.962;2022-10-19T12:36:46;11.80;99.90
13336;DHT22;6737;51.480;11.962;2022-10-19T12:45:17;11.70;99.90
13336;DHT22;6737;51.480;11.962;2022-10-19T12:56:19;11.70;99.90
13336;DHT22;6737;51.480;11.962;2022-10-19T12:58:50;11.70;99.90
13336;DHT22;6737;51.480;11.962;2022-10-19T13:01:26;11.80;99.90
13336;DHT22;6737;51.480;11.962;2022-10-19T13:04:14;11.80;99.90
13336;DHT22;6737;51.480;11.962;2022-10-19T13:06:46;11.70;99.90
13336;DHT22;6737;51.480;11.962;2022-10-19T13:09:33;11.70;99.90
13336;DHT22;6737;51.480;11.962;2022-10-19T13:14:47;11.80;99.90
13336;DHT22;6737;51.480;11.962;2022-10-19T13:41:08;11.60;99.90
13336;DHT22;6737;51.480;11.962;2022-10-19T13:54:40;11.50;99.90
13336;DHT22;6737;51.480;11.962;2022-10-19T14:08:07;11.50;99.90
13336;DHT22;6737;51.480;11.962;2022-10-19T14:10:36;11.50;99.90
13336;DHT22;6737;51.480;11.962;2022-10-19T14:13:02;11.50;99.90
13336;DHT22;6737;51.480;11.962;2022-10-19T14:15:32;11.50;99.90
13336;DHT22;6737;51.480;11.962;2022-10-19T14:17:59;11.50;99.90
13336;DHT22;6737;51.480;11.962;2022-10-19T14:20:36;11.40;99.90
13336;DHT22;6737;51.480;11.962;2022-10-19T14:23:24;11.50;99.90
13336;DHT22;6737;51.480;11.962;2022-10-19T14:25:56;11.50;99.90
13336;DHT22;6737;51.480;11.962;2022-10-19T14:28:23;11.40;99.90
13336;DHT22;6737;51.480;11.962;2022-10-19T14:33:28;11.40;99.90
13336;DHT22;6737;51.480;11.962;2022-10-19T14:35:54;11.40;99.90
13336;DHT22;6737;51.480;11.962;2022-10-19T14:38:35;11.40;99.90
13336;DHT22;6737;51.480;11.962;2022-10-19T14:41:03;11.40;99.90
13336;DHT22;6737;51.480;11.962;2022-10-19T14:43:31;11.40;99.90
13336;DHT22;6737;51.480;11.962;2022-10-19T14:48:46;11.40;99.90
13336;DHT22;6737;51.480;11.962;2022-10-19T14:54:04;11.40;99.90
13336;DHT22;6737;51.480;11.962;2022-10-19T14:56:35;11.40;99.90
13336;DHT22;6737;51.480;11.962;2022-10-19T14:59:04;11.30;99.90
13336;DHT22;6737;51.480;11.962;2022-10-19T15:01:33;11.40;99.90
13336;DHT22;6737;51.480;11.962;2022-10-19T15:04:00;11.50;99.90
13336;DHT22;6737;51.480;11.962;2022-10-19T15:06:30;11.50;99.90
13336;DHT22;6737;51.480;11.962;2022-10-19T15:09:03;11.50;99.90
13336;DHT22;6737;51.480;11.962;2022-10-19T15:11:37;11.50;99.90
13336;DHT22;6737;51.480;11.962;2022-10-19T15:14:19;11.50;99.90
13336;DHT22;6737;51.480;11.962;2022-10-19T15:16:58;11.40;99.90
13336;DHT22;6737;51.480;11.962;2022-10-19T15:19:44;11.30;99.90
13336;DHT22;6737;51.480;11.962;2022-10-19T15:27:42;11.40;99.90
13336;DHT22;6737;51.480;11.962;2022-10-19T15:32:56;11.30;99.90
13336;DHT22;6737;51.480;11.962;2022-10-19T15:35:28;11.40;99.90
13336;DHT22;6737;51.480;11.962;2022-10-19T15:38:19;11.30;99.90
13336;DHT22;6737;51.480;11.962;2022-10-19T15:40:45;11.30;99.90
13336;DHT22;6737;51.480;11.962;2022-10-19T15:43:42;11.30;99.90
13336;DHT22;6737;51.480;11.962;2022-10-19T15:53:53;11.10;99.90
13336;DHT22;6737;51.480;11.962;2022-10-19T15:56:23;11.10;99.90
13336;DHT22;6737;51.480;11.962;2022-10-19T15:58:51;11.10;99.90
13336;DHT22;6737;51.480;11.962;2022-10-19T16:01:22;11.00;99.90
13336;DHT22;6737;51.480;11.962;2022-10-19T16:03:49;11.00;99.90
13336;DHT22;6737;51.480;11.962;2022-10-19T16:06:16;11.00;99.90
13336;DHT22;6737;51.480;11.962;2022-10-19T16:08:42;11.00;99.90
13336;DHT22;6737;51.480;11.962;2022-10-19T16:11:15;11.00;99.90
13336;DHT22;6737;51.480;11.962;2022-10-19T16:13:42;11.00;99.90
13336;DHT22;6737;51.480;11.962;2022-10-19T16:16:11;11.00;99.90
13336;DHT22;6737;51.480;11.962;2022-10-19T16:18:39;11.10;99.90
13336;DHT22;6737;51.480;11.962;2022-10-19T16:21:05;11.10;99.90
13336;DHT22;6737;51.480;11.962;2022-10-19T16:23:31;11.00;99.90
13336;DHT22;6737;51.480;11.962;2022-10-19T16:26:00;11.00;99.90
13336;DHT22;6737;51.480;11.962;2022-10-19T16:28:26;11.00;99.90
13336;DHT22;6737;51.480;11.962;2022-10-19T16:30:53;10.90;99.90
13336;DHT22;6737;51.480;11.962;2022-10-19T16:33:19;10.90;99.90
13336;DHT22;6737;51.480;11.962;2022-10-19T16:35:45;10.90;99.90
13336;DHT22;6737;51.480;11.962;2022-10-19T16:38:11;10.80;99.90
13336;DHT22;6737;51.480;11.962;2022-10-19T16:40:37;10.80;99.90
13336;DHT22;6737;51.480;11.962;2022-10-19T16:43:03;10.80;99.90
13336;DHT22;6737;51.480;11.962;2022-10-19T16:45:29;10.80;99.90
13336;DHT22;6737;51.480;11.962;2022-10-19T16:47:55;10.80;99.90
13336;DHT22;6737;51.480;11.962;2022-10-19T16:50:21;10.80;99.90
13336;DHT22;6737;51.480;11.962;2022-10-19T16:52:47;10.80;99.90
13336;DHT22;6737;51.480;11.962;2022-10-19T16:55:27;10.70;99.90
13336;DHT22;6737;51.480;11.962;2022-10-19T16:57:54;10.70;99.90
13336;DHT22;6737;51.480;11.962;2022-10-19T17:00:20;10.70;99.90
13336;DHT22;6737;51.480;11.962;2022-10-19T17:02:46;10.60;99.90
13336;DHT22;6737;51.480;11.962;2022-10-19T17:05:12;10.60;99.90
13336;DHT22;6737;51.480;11.962;2022-10-19T17:07:37;10.50;99.90
13336;DHT22;6737;51.480;11.962;2022-10-19T17:10:04;10.50;99.90
13336;DHT22;6737;51.480;11.962;2022-10-19T17:12:30;10.60;99.90
13336;DHT22;6737;51.480;11.962;2022-10-19T17:14:55;10.50;99.90
13336;DHT22;6737;51.480;11.962;2022-10-19T17:17:21;10.50;99.90
13336;DHT22;6737;51.480;11.962;2022-10-19T17:19:47;10.50;99.90
13336;DHT22;6737;51.480;11.962;2022-10-19T17:22:13;10.40;99.90
13336;DHT22;6737;51.480;11.962;2022-10-19T17:24:39;10.40;99.90
13336;DHT22;6737;51.480;11.962;2022-10-19T17:27:05;10.30;99.90
13336;DHT22;6737;51.480;11.962;2022-10-19T17:29:31;10.30;99.90
13336;DHT22;6737;51.480;11.962;2022-10-19T17:31:57;10.20;99.90
13336;DHT22;6737;51.480;11.962;2022-10-19T17:34:23;10.20;99.90
13336;DHT22;6737;51.480;11.962;2022-10-19T17:36:49;10.20;99.90
13336;DHT22;6737;51.480;11.962;2022-10-19T17:39:18;10.20;99.90
13336;DHT22;6737;51.480;11.962;2022-10-19T17:41:47;10.10;99.90
13336;DHT22;6737;51.480;11.962;2022-10-19T17:44:14;10.00;99.90
13336;DHT22;6737;51.480;11.962;2022-10-19T17:46:43;10.00;99.90
13336;DHT22;6737;51.480;11.962;2022-10-19T17:49:10;9.90;99.90
13336;DHT22;6737;51.480;11.962;2022-10-19T17:51:36;10.00;99.90
13336;DHT22;6737;51.480;11.962;2022-10-19T17:54:08;9.90;99.90
13336;DHT22;6737;51.480;11.962;2022-10-19T17:56:36;9.90;99.90
13336;DHT22;6737;51.480;11.962;2022-10-19T17:59:03;9.90;99.90
13336;DHT22;6737;51.480;11.962;2022-10-19T18:01:29;9.80;99.90
13336;DHT22;6737;51.480;11.962;2022-10-19T18:03:55;9.80;99.90
13336;DHT22;6737;51.480;11.962;2022-10-19T18:06:26;9.70;99.90
13336;DHT22;6737;51.480;11.962;2022-10-19T18:08:55;9.70;99.90
13336;DHT22;6737;51.480;11.962;2022-10-19T18:11:22;9.70;99.90
13336;DHT22;6737;51.480;11.962;2022-10-19T18:13:51;9.60;99.90
13336;DHT22;6737;51.480;11.962;2022-10-19T18:16:26;9.50;99.90
13336;DHT22;6737;51.480;11.962;2022-10-19T18:18:55;9.40;99.90
13336;DHT22;6737;51.480;11.962;2022-10-19T18:21:23;9.40;99.90
13336;DHT22;6737;51.480;11.962;2022-10-19T18:23:50;9.30;99.90
13336;DHT22;6737;51.480;11.962;2022-10-19T18:26:22;9.20;99.90
13336;DHT22;6737;51.480;11.962;2022-10-19T18:28:49;9.20;99.90
13336;DHT22;6737;51.480;11.962;2022-10-19T18:31:22;9.10;99.90
13336;DHT22;6737;51.480;11.962;2022-10-19T18:33:56;9.10;99.90
13336;DHT22;6737;51.480;11.962;2022-10-19T18:36:22;9.10;99.90
13336;DHT22;6737;51.480;11.962;2022-10-19T18:38:53;9.10;99.90
13336;DHT22;6737;51.480;11.962;2022-10-19T18:41:20;9.10;99.90
13336;DHT22;6737;51.480;11.962;2022-10-19T18:43:51;9.10;99.90
13336;DHT22;6737;51.480;11.962;2022-10-19T18:46:18;9.00;99.90
13336;DHT22;6737;51.480;11.962;2022-10-19T18:48:45;9.00;99.90
13336;DHT22;6737;51.480;11.962;2022-10-19T18:51:13;8.90;99.90